KSEA/SEA METAR and TAF weather

Enter ICAO airport designator
Station Type Date Time Source
KSEA METAR 2022/12/05 14:53 UTC NOAA

KSEA 051453Z 03004KT 5SM BR SCT001 OVC033 02/01 A3001 RMK AO2 SLP172 T00220011 53001


Station Type Date Time Source
KSEA Decoded METAR 2022/12/05 14:53 UTC NOAA

SEATTLE-TACOMA INTERNATIONAL AIRPORT , WA, United States (KSEA) 47-27N 122-19W 136M
Dec 05, 2022 - 09:53 AM EST / 2022.12.05 1453 UTC
Wind: from the NNE (030 degrees) at 5 MPH (4 KT):0
Visibility: 5 mile(s):0
Sky conditions: overcast
Weather: mist
Temperature: 36.0 F (2.2 C)
Dew Point: 34.0 F (1.1 C)
Relative Humidity: 92%
Pressure (altimeter): 30.01 in. Hg (1016 hPa)
Pressure tendency: 0.00 inches (0.1 hPa) higher than three hours ago
ob: KSEA 051453Z 03004KT 5SM BR SCT001 OVC033 02/01 A3001 RMK AO2 SLP172 T00220011 53001
cycle: 15

Station Type Date Time Source
KSEA TAF 2022/12/05 14:09 UTC NOAA

TAF
AMD KSEA 051407Z 0514/0618 05003KT P6SM SCT002 OVC030
TEMPO 0514/0516 1SM BR BKN001 OVC025
FM051900 34003KT P6SM OVC015
FM060600 VRB03KT P6SM OVC015

Example: see airport list